createdAt,value
2022-11-09T00:00:21.384Z,1.3
2022-11-09T00:01:30.165Z,0.8
2022-11-09T00:02:43.792Z,0.8
2022-11-09T00:03:49.644Z,1.4
2022-11-09T00:04:58.419Z,1
2022-11-09T00:06:08.296Z,1.2
2022-11-09T00:07:18.068Z,1.1
2022-11-09T00:08:25.856Z,1.1
2022-11-09T00:09:35.583Z,1.2
2022-11-09T00:10:45.267Z,1.2
2022-11-09T00:11:56.071Z,1.4
2022-11-09T00:13:05.767Z,1
2022-11-09T00:14:13.523Z,1.1
2022-11-09T00:15:23.262Z,1.3
2022-11-09T00:16:32.066Z,1
2022-11-09T00:17:39.937Z,1.2
2022-11-09T00:18:49.667Z,1
2022-11-09T00:19:57.397Z,1.1
2022-11-09T00:21:06.322Z,1.1
2022-11-09T00:22:16.053Z,1
2022-11-09T00:23:23.846Z,1.3
2022-11-09T00:24:33.501Z,1
2022-11-09T00:25:42.311Z,1.2
2022-11-09T00:26:51.103Z,1.1
2022-11-09T00:28:00.946Z,0.9
2022-11-09T00:29:08.601Z,1
2022-11-09T00:30:17.283Z,1.2
2022-11-09T00:31:27.028Z,1.2
2022-11-09T00:32:35.703Z,0.9
2022-11-09T00:33:44.438Z,1.1
2022-11-09T00:34:53.202Z,1.1
2022-11-09T00:36:02.040Z,1
2022-11-09T00:37:11.834Z,1
2022-11-09T00:38:21.580Z,1
2022-11-09T00:39:30.404Z,1
2022-11-09T00:40:40.160Z,0.9
2022-11-09T00:41:47.932Z,1.2
2022-11-09T00:42:57.655Z,1
2022-11-09T00:44:07.432Z,0.8
2022-11-09T00:45:15.175Z,0.9
2022-11-09T00:46:23.924Z,0.9
2022-11-09T00:47:33.651Z,0.9
2022-11-09T00:48:42.419Z,0.8
2022-11-09T00:49:52.170Z,0.9
2022-11-09T00:51:01.939Z,0.8
2022-11-09T00:52:10.688Z,0.7
2022-11-09T00:53:20.773Z,1
2022-11-09T00:54:27.151Z,0.8
2022-11-09T00:55:35.914Z,0.8
2022-11-09T00:56:45.768Z,1
2022-11-09T00:57:55.565Z,0.8
2022-11-09T00:59:05.309Z,0.7
2022-11-09T01:00:15.095Z,0.8
2022-11-09T01:01:24.878Z,0.8
2022-11-09T01:02:35.543Z,0.9
2022-11-09T01:03:43.410Z,0.7
2022-11-09T01:04:52.165Z,0.9
2022-11-09T01:06:01.919Z,0.8
2022-11-09T01:07:10.768Z,0.8
2022-11-09T01:08:20.583Z,1
2022-11-09T01:09:30.399Z,1
2022-11-09T01:10:37.169Z,0.9
2022-11-09T01:11:46.857Z,1
2022-11-09T01:12:55.620Z,1.1
2022-11-09T01:14:05.350Z,0.9
2022-11-09T01:15:15.130Z,1
2022-11-09T01:16:24.864Z,1.2
2022-11-09T01:17:34.583Z,1
2022-11-09T01:18:44.299Z,0.7
2022-11-09T01:19:53.041Z,1
2022-11-09T01:21:02.852Z,0.9
2022-11-09T01:22:10.573Z,1.1
2022-11-09T01:23:20.679Z,1
2022-11-09T01:24:30.171Z,1
2022-11-09T01:25:37.949Z,0.9
2022-11-09T01:26:47.697Z,1
2022-11-09T01:27:57.463Z,0.8
2022-11-09T01:29:05.298Z,0.8
2022-11-09T01:30:14.923Z,0.8
2022-11-09T01:31:22.648Z,1
2022-11-09T01:32:32.472Z,1.2
2022-11-09T01:33:42.186Z,0.8
2022-11-09T01:34:49.938Z,1
2022-11-09T01:35:59.709Z,0.9
2022-11-09T01:37:08.429Z,0.9
2022-11-09T01:38:16.160Z,0.8
2022-11-09T01:39:25.944Z,0.8
2022-11-09T01:40:34.764Z,1
2022-11-09T01:41:43.524Z,1
2022-11-09T01:42:52.301Z,0.9
2022-11-09T01:44:00.082Z,0.9
2022-11-09T01:45:09.803Z,0.8
2022-11-09T01:46:19.568Z,1.3
2022-11-09T01:47:27.294Z,0.7
2022-11-09T01:48:36.987Z,0.7
2022-11-09T01:49:44.683Z,0.9
2022-11-09T01:50:54.456Z,0.9
2022-11-09T01:52:04.239Z,1
2022-11-09T01:53:11.934Z,0.8
2022-11-09T01:54:21.673Z,0.7
2022-11-09T01:55:31.444Z,1
2022-11-09T01:56:40.182Z,1.2
2022-11-09T01:57:49.945Z,1.3
2022-11-09T01:58:57.742Z,0.9
2022-11-09T02:00:07.512Z,0.8
2022-11-09T02:01:17.418Z,1.2
2022-11-09T02:02:27.149Z,0.8
2022-11-09T02:03:36.922Z,0.8
2022-11-09T02:04:46.636Z,0.7
2022-11-09T02:05:55.317Z,0.6
2022-11-09T02:07:05.226Z,0.8
2022-11-09T02:08:13.971Z,0.7
2022-11-09T02:09:22.729Z,0.6
2022-11-09T02:10:30.434Z,0.8
2022-11-09T02:11:39.181Z,0.8
2022-11-09T02:12:49.099Z,1
2022-11-09T02:13:57.782Z,0.7
2022-11-09T02:15:06.439Z,0.9
2022-11-09T02:16:16.160Z,0.8
2022-11-09T02:17:24.861Z,0.7
2022-11-09T02:18:33.593Z,0.9
2022-11-09T02:19:43.332Z,0.9
2022-11-09T02:20:53.072Z,0.9
2022-11-09T02:22:02.812Z,0.9
2022-11-09T02:23:11.556Z,0.9
2022-11-09T02:24:19.313Z,0.8
2022-11-09T02:25:29.026Z,1.1
2022-11-09T02:26:37.711Z,0.7
2022-11-09T02:27:46.465Z,1
2022-11-09T02:28:56.201Z,0.7
2022-11-09T02:30:04.927Z,0.7
2022-11-09T02:31:14.717Z,1
2022-11-09T02:32:24.461Z,1
2022-11-09T02:33:34.292Z,0.6
2022-11-09T02:34:43.982Z,1
2022-11-09T02:35:53.735Z,0.7
2022-11-09T02:37:03.481Z,0.7
2022-11-09T02:38:13.173Z,1
2022-11-09T02:39:21.909Z,1.1
2022-11-09T02:40:31.659Z,1
2022-11-09T02:41:40.462Z,0.7
2022-11-09T02:42:49.189Z,0.7
2022-11-09T02:43:58.928Z,0.9
2022-11-09T02:45:08.769Z,0.6
2022-11-09T02:46:17.459Z,0.8
2022-11-09T02:47:27.201Z,0.8
2022-11-09T02:48:37.004Z,0.7
2022-11-09T02:49:46.813Z,0.9
2022-11-09T02:50:56.590Z,1.1
2022-11-09T02:52:06.347Z,0.7
2022-11-09T02:53:15.079Z,0.6
2022-11-09T02:54:24.877Z,0.9
2022-11-09T02:55:33.577Z,0.6
2022-11-09T02:56:43.332Z,0.7
2022-11-09T02:57:52.063Z,0.8
2022-11-09T02:58:59.839Z,0.6
2022-11-09T03:00:08.591Z,0.6
2022-11-09T03:01:17.332Z,0.6
2022-11-09T03:02:26.064Z,0.7
2022-11-09T03:03:35.867Z,0.5
2022-11-09T03:04:44.593Z,0.7
2022-11-09T03:05:54.291Z,0.6
2022-11-09T03:07:04.139Z,0.6
2022-11-09T03:08:13.862Z,0.6
2022-11-09T03:09:23.629Z,0.6
2022-11-09T03:10:31.365Z,0.7
2022-11-09T03:11:40.122Z,0.7
2022-11-09T03:12:49.888Z,0.6
2022-11-09T03:13:57.541Z,0.6
2022-11-09T03:15:07.294Z,0.5
2022-11-09T03:16:16.078Z,0.6
2022-11-09T03:17:24.831Z,0.8
2022-11-09T03:18:34.590Z,0.4
2022-11-09T03:19:42.461Z,0.6
2022-11-09T03:20:51.211Z,0.5
2022-11-09T03:22:01.010Z,0.5
2022-11-09T03:23:08.707Z,0.7
2022-11-09T03:24:18.391Z,0.5
2022-11-09T03:25:27.129Z,0.6
2022-11-09T03:26:34.881Z,0.5
2022-11-09T03:27:43.652Z,0.7
2022-11-09T03:28:52.380Z,0.5
2022-11-09T03:30:02.095Z,0.6
2022-11-09T03:31:11.837Z,0.6
2022-11-09T03:32:20.566Z,0.7
2022-11-09T03:33:30.357Z,0.6
2022-11-09T03:34:40.101Z,0.7
2022-11-09T03:35:48.858Z,0.6
2022-11-09T03:36:58.511Z,0.5
2022-11-09T03:38:07.328Z,0.5
2022-11-09T03:39:16.986Z,0.7
2022-11-09T03:40:26.843Z,0.6
2022-11-09T03:41:34.516Z,0.5
2022-11-09T03:42:43.224Z,0.4
2022-11-09T03:43:51.994Z,0.8
2022-11-09T03:45:00.806Z,0.5
2022-11-09T03:46:10.482Z,0.7
2022-11-09T03:47:18.192Z,0.6
2022-11-09T03:48:28.878Z,0.8
2022-11-09T03:49:37.590Z,0.5
2022-11-09T03:50:47.274Z,0.6
2022-11-09T03:51:57.003Z,0.6
2022-11-09T03:53:05.747Z,0.6
2022-11-09T03:54:13.479Z,0.6
2022-11-09T03:55:23.233Z,0.5
2022-11-09T03:56:33.138Z,0.6
2022-11-09T03:57:41.728Z,0.8
2022-11-09T03:58:51.481Z,0.7
2022-11-09T04:00:00.233Z,0.5
2022-11-09T04:01:09.983Z,0.6
2022-11-09T04:02:18.713Z,0.7
2022-11-09T04:03:26.456Z,0.5
2022-11-09T04:04:36.261Z,0.6
2022-11-09T04:05:44.972Z,0.6
2022-11-09T04:06:53.705Z,0.5
2022-11-09T04:08:02.317Z,0.7
2022-11-09T04:09:11.005Z,0.6
2022-11-09T04:10:20.652Z,0.5
2022-11-09T04:11:30.345Z,0.6
2022-11-09T04:12:40.035Z,0.8
2022-11-09T04:13:49.769Z,0.5
2022-11-09T04:14:58.428Z,0.7
2022-11-09T04:16:07.139Z,0.6
2022-11-09T04:17:16.915Z,0.6
2022-11-09T04:18:24.600Z,0.5
2022-11-09T04:19:34.457Z,0.5
2022-11-09T04:20:43.246Z,0.7
2022-11-09T04:21:50.874Z,0.6
2022-11-09T04:23:00.640Z,0.5
2022-11-09T04:24:09.409Z,0.6
2022-11-09T04:25:18.156Z,0.6
2022-11-09T04:26:26.912Z,0.4
2022-11-09T04:27:34.606Z,0.6
2022-11-09T04:28:44.360Z,0.6
2022-11-09T04:29:54.143Z,0.6
2022-11-09T04:31:02.970Z,0.5
2022-11-09T04:32:12.737Z,0.6
2022-11-09T04:33:21.950Z,0.5
2022-11-09T04:34:30.407Z,0.6
2022-11-09T04:35:40.147Z,0.5
2022-11-09T04:36:47.880Z,0.5
2022-11-09T04:37:57.614Z,0.4
2022-11-09T04:39:06.363Z,0.4
2022-11-09T04:40:16.142Z,0.4
2022-11-09T04:41:25.919Z,0.5
2022-11-09T04:42:33.756Z,0.4
2022-11-09T04:43:41.501Z,0.5
2022-11-09T04:44:51.232Z,0.5
2022-11-09T04:45:59.882Z,0.5
2022-11-09T04:47:07.602Z,0.5
2022-11-09T04:48:17.368Z,0.7
2022-11-09T04:49:26.129Z,0.5
2022-11-09T04:50:34.885Z,0.6
2022-11-09T04:51:44.662Z,0.7
2022-11-09T04:52:52.405Z,0.6
2022-11-09T04:54:02.128Z,0.8
2022-11-09T04:55:10.908Z,0.6
2022-11-09T04:56:19.686Z,1
2022-11-09T04:57:29.509Z,0.7
2022-11-09T04:58:37.212Z,0.7
2022-11-09T04:59:46.911Z,0.6
2022-11-09T05:00:56.724Z,0.5
2022-11-09T05:02:04.413Z,0.6
2022-11-09T05:03:14.229Z,0.6
2022-11-09T05:04:23.906Z,0.6
2022-11-09T05:05:32.679Z,0.7
2022-11-09T05:06:42.415Z,0.8
2022-11-09T05:07:51.165Z,0.6
2022-11-09T05:09:01.039Z,0.8
2022-11-09T05:10:10.767Z,0.8
2022-11-09T05:11:19.619Z,0.7
2022-11-09T05:12:29.388Z,0.7
2022-11-09T05:13:38.137Z,0.6
2022-11-09T05:14:45.920Z,0.6
2022-11-09T05:15:55.643Z,0.4
2022-11-09T05:17:06.463Z,0.7
2022-11-09T05:18:15.175Z,0.6
2022-11-09T05:19:24.883Z,0.5
2022-11-09T05:20:34.638Z,0.5
2022-11-09T05:21:44.392Z,0.5
2022-11-09T05:22:54.373Z,0.6
2022-11-09T05:24:02.104Z,0.5
2022-11-09T05:25:11.897Z,0.5
2022-11-09T05:26:20.646Z,0.6
2022-11-09T05:27:30.355Z,0.5
2022-11-09T05:28:40.142Z,0.5
2022-11-09T05:29:47.824Z,0.5
2022-11-09T05:30:56.671Z,0.6
2022-11-09T05:32:05.373Z,0.5
2022-11-09T05:33:15.215Z,0.8
2022-11-09T05:34:24.937Z,0.6
2022-11-09T05:35:33.680Z,0.6
2022-11-09T05:36:42.403Z,0.6
2022-11-09T05:37:52.126Z,0.8
2022-11-09T05:39:00.812Z,0.5
2022-11-09T05:40:10.577Z,0.6
2022-11-09T05:41:20.370Z,0.6
2022-11-09T05:42:29.157Z,0.8
2022-11-09T05:43:39.969Z,0.5
2022-11-09T05:44:47.732Z,0.7
2022-11-09T05:45:56.522Z,0.7
2022-11-09T05:47:06.315Z,0.6
2022-11-09T05:48:16.058Z,0.6
2022-11-09T05:49:25.791Z,0.9
2022-11-09T05:50:35.605Z,0.7
2022-11-09T05:51:43.318Z,0.7
2022-11-09T05:52:53.056Z,1.1
2022-11-09T05:54:00.772Z,1.1
2022-11-09T05:55:09.752Z,1.3
2022-11-09T05:56:19.540Z,1.1
2022-11-09T05:57:28.440Z,1.1
2022-11-09T05:58:38.178Z,1.3
2022-11-09T05:59:46.919Z,1.2
2022-11-09T06:00:54.691Z,1.3
2022-11-09T06:02:04.503Z,1.3
2022-11-09T06:03:12.215Z,0.9
2022-11-09T06:04:20.945Z,0.9
2022-11-09T06:05:30.778Z,0.7
2022-11-09T06:06:39.499Z,0.7
2022-11-09T06:07:49.176Z,0.7
2022-11-09T06:08:58.966Z,0.9
2022-11-09T06:10:06.679Z,0.8
2022-11-09T06:11:22.994Z,0.6
2022-11-09T06:12:26.170Z,0.8
2022-11-09T06:13:33.919Z,0.5
2022-11-09T06:14:43.668Z,0.6
2022-11-09T06:15:52.395Z,0.5
2022-11-09T06:17:02.170Z,0.7
2022-11-09T06:18:10.940Z,0.5
2022-11-09T06:19:19.771Z,0.6
2022-11-09T06:20:29.554Z,1
2022-11-09T06:21:38.311Z,0.7
2022-11-09T06:22:47.050Z,0.6
2022-11-09T06:23:56.787Z,0.6
2022-11-09T06:25:06.549Z,0.7
2022-11-09T06:26:16.434Z,0.9
2022-11-09T06:27:25.235Z,0.7
2022-11-09T06:28:33.917Z,0.6
2022-11-09T06:29:43.724Z,0.8
2022-11-09T06:30:52.460Z,0.7
2022-11-09T06:32:01.292Z,0.5
2022-11-09T06:33:11.002Z,0.5
2022-11-09T06:34:19.729Z,0.7
2022-11-09T06:35:29.445Z,0.6
2022-11-09T06:36:38.185Z,0.9
2022-11-09T06:37:47.975Z,1.2
2022-11-09T06:38:57.713Z,0.9
2022-11-09T06:40:06.466Z,0.8
2022-11-09T06:41:14.206Z,1.1
2022-11-09T06:42:23.991Z,1.1
2022-11-09T06:43:33.802Z,0.9
2022-11-09T06:44:41.710Z,1
2022-11-09T06:45:51.432Z,1
2022-11-09T06:46:59.186Z,1.2
2022-11-09T06:48:06.913Z,1.8
2022-11-09T06:49:16.668Z,1.2
2022-11-09T06:50:25.484Z,0.9
2022-11-09T06:51:35.255Z,0.8
2022-11-09T06:52:44.010Z,0.8
2022-11-09T06:53:53.884Z,1.2
2022-11-09T06:55:03.554Z,1.5
2022-11-09T06:56:12.515Z,0.9
2022-11-09T06:57:21.061Z,1.3
2022-11-09T06:58:30.838Z,0.7
2022-11-09T06:59:38.558Z,0.8
2022-11-09T07:00:48.339Z,2.4
2022-11-09T07:02:01.144Z,1.3
2022-11-09T07:03:07.779Z,0.7
2022-11-09T07:04:17.535Z,0.9
2022-11-09T07:05:25.322Z,1.1
2022-11-09T07:06:34.207Z,0.5
2022-11-09T07:07:43.855Z,0.8
2022-11-09T07:08:51.607Z,0.9
2022-11-09T07:10:01.599Z,0.8
2022-11-09T07:11:11.186Z,0.7
2022-11-09T07:12:19.136Z,0.8
2022-11-09T07:13:27.945Z,0.7
2022-11-09T07:14:35.690Z,0.7
2022-11-09T07:15:44.460Z,0.7
2022-11-09T07:16:54.222Z,0.8
2022-11-09T07:18:03.050Z,0.8
2022-11-09T07:19:12.816Z,1.8
2022-11-09T07:20:21.605Z,0.8
2022-11-09T07:21:29.343Z,0.5
2022-11-09T07:22:39.103Z,0.7
2022-11-09T07:23:47.847Z,0.8
2022-11-09T07:24:56.608Z,0.6
2022-11-09T07:26:06.404Z,0.9
2022-11-09T07:27:15.083Z,0.6
2022-11-09T07:28:24.838Z,1
2022-11-09T07:29:33.693Z,0.9
2022-11-09T07:30:42.408Z,0.9
2022-11-09T07:31:52.205Z,0.9
2022-11-09T07:33:09.010Z,1
2022-11-09T07:34:12.695Z,0.9
2022-11-09T07:35:22.428Z,0.9
2022-11-09T07:36:32.200Z,0.8
2022-11-09T07:37:41.978Z,0.7
2022-11-09T07:38:51.733Z,0.4
2022-11-09T07:40:01.463Z,0.5
2022-11-09T07:41:11.310Z,0.8
2022-11-09T07:42:20.982Z,1.1
2022-11-09T07:43:30.719Z,1.5
2022-11-09T07:44:41.439Z,1.6
2022-11-09T07:45:49.190Z,1.2
2022-11-09T07:46:59.046Z,0.9
2022-11-09T07:48:08.856Z,0.8
2022-11-09T07:49:17.551Z,1
2022-11-09T07:50:27.311Z,0.8
2022-11-09T07:51:35.033Z,0.7
2022-11-09T07:52:43.790Z,0.7
2022-11-09T07:53:53.536Z,0.8
2022-11-09T07:55:02.229Z,0.8
2022-11-09T07:56:10.973Z,0.6
2022-11-09T07:57:20.731Z,0.7
2022-11-09T07:58:29.456Z,0.7
2022-11-09T07:59:38.206Z,0.7
2022-11-09T08:00:45.961Z,0.7
2022-11-09T08:01:54.754Z,0.7
2022-11-09T08:03:04.606Z,0.6
2022-11-09T08:04:12.361Z,0.7
2022-11-09T08:05:22.134Z,0.6
2022-11-09T08:06:30.912Z,0.6
2022-11-09T08:07:38.620Z,0.8
2022-11-09T08:08:48.360Z,0.8
2022-11-09T08:09:57.117Z,0.5
2022-11-09T08:11:06.880Z,0.7
2022-11-09T08:12:16.592Z,0.7
2022-11-09T08:13:26.352Z,0.8
2022-11-09T08:14:36.061Z,0.9
2022-11-09T08:15:45.939Z,0.6
2022-11-09T08:16:54.620Z,0.6
2022-11-09T08:18:04.371Z,0.7
2022-11-09T08:19:13.109Z,1
2022-11-09T08:20:21.859Z,1.1
2022-11-09T08:21:31.620Z,1
2022-11-09T08:22:41.344Z,1.1
2022-11-09T08:23:51.142Z,1.5
2022-11-09T08:25:00.911Z,0.9
2022-11-09T08:26:09.598Z,0.7
2022-11-09T08:27:19.372Z,0.5
2022-11-09T08:28:29.124Z,0.8
2022-11-09T08:29:38.863Z,1.6
2022-11-09T08:30:48.624Z,1.1
2022-11-09T08:31:56.308Z,0.5
2022-11-09T08:33:06.178Z,0.7
2022-11-09T08:34:14.985Z,0.5
2022-11-09T08:35:23.721Z,0.5
2022-11-09T08:36:32.493Z,0.7
2022-11-09T08:37:40.223Z,1.2
2022-11-09T08:38:49.102Z,1.8
2022-11-09T08:39:58.896Z,2.4
2022-11-09T08:41:13.160Z,1.4
2022-11-09T08:42:18.373Z,0.9
2022-11-09T08:43:28.165Z,0.6
2022-11-09T08:44:37.942Z,0.6
2022-11-09T08:45:47.609Z,0.9
2022-11-09T08:46:57.379Z,0.8
2022-11-09T08:48:05.131Z,0.8
2022-11-09T08:49:14.838Z,0.7
2022-11-09T08:50:24.602Z,0.6
2022-11-09T08:51:33.366Z,0.4
2022-11-09T08:52:43.103Z,0.5
2022-11-09T08:53:51.930Z,0.4
2022-11-09T08:55:01.700Z,0.7
2022-11-09T08:56:11.485Z,0.3
2022-11-09T08:57:20.236Z,0.6
2022-11-09T08:58:30.021Z,0.5
2022-11-09T08:59:39.770Z,0.5
2022-11-09T09:00:49.527Z,0.4
2022-11-09T09:01:59.343Z,0.5
2022-11-09T09:03:07.118Z,0.6
2022-11-09T09:04:15.896Z,0.9
2022-11-09T09:05:25.631Z,1.3
2022-11-09T09:06:34.378Z,0.9
2022-11-09T09:07:44.276Z,0.9
2022-11-09T09:08:54.111Z,0.6
2022-11-09T09:10:01.902Z,0.7
2022-11-09T09:11:11.614Z,0.6
2022-11-09T09:12:20.335Z,0.7
2022-11-09T09:13:29.236Z,0.8
2022-11-09T09:14:39.020Z,0.7
2022-11-09T09:15:47.775Z,0.6
2022-11-09T09:16:57.592Z,0.6
2022-11-09T09:18:06.379Z,0.7
2022-11-09T09:19:14.202Z,0.7
2022-11-09T09:20:23.916Z,0.7
2022-11-09T09:21:32.629Z,0.7
2022-11-09T09:22:41.398Z,0.8
2022-11-09T09:23:51.120Z,0.6
2022-11-09T09:24:58.991Z,0.7
2022-11-09T09:26:08.759Z,0.5
2022-11-09T09:27:18.535Z,0.6
2022-11-09T09:28:27.227Z,0.5
2022-11-09T09:29:37.012Z,0.7
2022-11-09T09:30:46.789Z,0.5
2022-11-09T09:31:55.533Z,0.5
2022-11-09T09:33:05.266Z,0.4
2022-11-09T09:34:13.022Z,0.4
2022-11-09T09:35:22.716Z,0.4
2022-11-09T09:36:31.493Z,0.3
2022-11-09T09:37:41.253Z,0.4
2022-11-09T09:38:51.017Z,0.4
2022-11-09T09:39:59.726Z,0.5
2022-11-09T09:41:09.602Z,0.4
2022-11-09T09:42:19.378Z,0.4
2022-11-09T09:43:28.129Z,0.5
2022-11-09T09:44:37.881Z,0.4
2022-11-09T09:45:46.628Z,0.4
2022-11-09T09:46:55.386Z,0.3
2022-11-09T09:48:05.225Z,0.4
2022-11-09T09:49:15.025Z,0.2
2022-11-09T09:50:24.546Z,0.3
2022-11-09T09:51:34.289Z,0.5
2022-11-09T09:52:47.647Z,0.3
2022-11-09T09:53:53.778Z,0.5
2022-11-09T09:55:02.531Z,0.4
2022-11-09T09:56:11.262Z,0.3
2022-11-09T09:57:21.004Z,0.6
2022-11-09T09:58:28.953Z,0.6
2022-11-09T09:59:37.658Z,0.4
2022-11-09T10:00:47.425Z,0.4
2022-11-09T10:01:55.165Z,0.3
2022-11-09T10:03:04.965Z,0.3
2022-11-09T10:04:14.756Z,0.6
2022-11-09T10:05:24.447Z,0.4
2022-11-09T10:06:34.300Z,0.7
2022-11-09T10:07:41.971Z,0.6
2022-11-09T10:08:50.706Z,0.4
2022-11-09T10:10:00.522Z,0.4
2022-11-09T10:11:10.290Z,0.4
2022-11-09T10:12:20.044Z,0.4
2022-11-09T10:13:28.792Z,0.4
2022-11-09T10:14:37.605Z,0.3
2022-11-09T10:15:47.377Z,0.4
2022-11-09T10:16:56.144Z,0.4
2022-11-09T10:18:04.930Z,0.3
2022-11-09T10:19:14.656Z,0.4
2022-11-09T10:20:23.487Z,0.7
2022-11-09T10:21:33.170Z,0.9
2022-11-09T10:22:42.922Z,0.8
2022-11-09T10:23:52.665Z,0.7
2022-11-09T10:26:15.699Z,0.6
2022-11-09T10:27:22.798Z,0.4
2022-11-09T10:28:47.837Z,0.3
2022-11-09T10:29:43.276Z,0.3
2022-11-09T10:30:53.025Z,0.4
2022-11-09T10:32:01.763Z,0.4
2022-11-09T10:33:09.532Z,0.6
2022-11-09T10:34:19.414Z,0.4
2022-11-09T10:35:28.177Z,0.3
2022-11-09T10:36:37.911Z,0.3
2022-11-09T10:37:47.782Z,0.2
2022-11-09T10:38:56.521Z,0.4
2022-11-09T10:40:06.262Z,0.5
2022-11-09T10:41:15.984Z,0.3
2022-11-09T10:42:25.765Z,0.3
2022-11-09T10:43:35.524Z,0.2
2022-11-09T10:44:45.291Z,0.4
2022-11-09T10:45:55.105Z,0.3
2022-11-09T10:47:05.032Z,0.3
2022-11-09T10:48:14.819Z,0.5
2022-11-09T10:49:22.525Z,0.3
2022-11-09T10:50:32.350Z,0.5
2022-11-09T10:51:42.189Z,0.5
2022-11-09T10:52:51.910Z,0.4
2022-11-09T10:54:01.681Z,0.3
2022-11-09T10:55:10.445Z,0.2
2022-11-09T10:56:21.510Z,0.4
2022-11-09T10:57:27.888Z,0.3
2022-11-09T10:58:35.610Z,0.4
2022-11-09T10:59:45.343Z,0.6
2022-11-09T11:00:54.101Z,0.5
2022-11-09T11:02:02.932Z,0.4
2022-11-09T11:03:12.652Z,0.4
2022-11-09T11:04:21.382Z,0.5
2022-11-09T11:05:31.154Z,0.4
2022-11-09T11:06:39.992Z,0.7
2022-11-09T11:07:49.680Z,0.7
2022-11-09T11:08:59.436Z,0.5
2022-11-09T11:10:08.175Z,0.4
2022-11-09T11:11:35.329Z,0.4
2022-11-09T11:12:28.657Z,0.1
2022-11-09T11:13:36.489Z,0.4
2022-11-09T11:14:46.180Z,0.2
2022-11-09T11:15:54.910Z,0.3
2022-11-09T11:17:04.753Z,0.2
2022-11-09T11:18:14.430Z,0.5
2022-11-09T11:19:22.161Z,0.4
2022-11-09T11:20:31.083Z,0.4
2022-11-09T11:21:40.798Z,0.3
2022-11-09T11:22:48.519Z,0.2
2022-11-09T11:23:58.309Z,0.8
2022-11-09T11:25:08.074Z,3.3
2022-11-09T11:26:16.916Z,0.2
2022-11-09T11:27:26.680Z,0.4
2022-11-09T11:28:34.480Z,1.3
2022-11-09T11:29:43.210Z,0.7
2022-11-09T11:30:53.042Z,0.2
2022-11-09T11:32:01.718Z,0.3
2022-11-09T11:33:11.497Z,0.2
2022-11-09T11:34:38.698Z,0.5
2022-11-09T11:35:30.994Z,0.5
2022-11-09T11:36:40.697Z,0.4
2022-11-09T11:37:50.509Z,0.3
2022-11-09T11:39:00.351Z,0.3
2022-11-09T11:40:10.151Z,0.3
2022-11-09T11:41:18.916Z,0.4
2022-11-09T11:42:27.678Z,0.2
2022-11-09T11:43:37.429Z,0.3
2022-11-09T11:44:50.624Z,0.3
2022-11-09T11:45:56.973Z,0.4
2022-11-09T11:47:05.731Z,0.3
2022-11-09T11:48:14.510Z,0.2
2022-11-09T11:49:24.305Z,0.2
2022-11-09T11:50:33.081Z,0.2
2022-11-09T11:51:42.810Z,0.2
2022-11-09T11:52:51.607Z,0.3
2022-11-09T11:53:59.396Z,0.4
2022-11-09T11:55:09.241Z,0.4
2022-11-09T11:56:18.924Z,0.3
2022-11-09T11:57:28.676Z,0.4
2022-11-09T11:58:38.415Z,0.3
2022-11-09T11:59:47.151Z,0.3
2022-11-09T12:00:57.068Z,0.2
2022-11-09T12:02:05.815Z,0.1
2022-11-09T12:03:14.515Z,0.2
2022-11-09T12:04:28.062Z,0.2
2022-11-09T12:05:34.030Z,0.3
2022-11-09T12:06:44.249Z,0.4
2022-11-09T12:07:57.166Z,0.4
2022-11-09T12:09:04.303Z,0.4
2022-11-09T12:10:14.040Z,0.7
2022-11-09T12:11:23.684Z,0.2
2022-11-09T12:12:31.460Z,0.2
2022-11-09T12:13:44.531Z,0.2
2022-11-09T12:14:49.919Z,0.4
2022-11-09T12:15:58.640Z,0.2
2022-11-09T12:17:08.351Z,0.2
2022-11-09T12:18:17.114Z,0.2
2022-11-09T12:19:29.354Z,0.2
2022-11-09T12:20:35.556Z,0.4
2022-11-09T12:21:44.297Z,0.3
2022-11-09T12:22:54.063Z,0.2
2022-11-09T12:24:02.839Z,0.3
2022-11-09T12:25:11.565Z,0.4
2022-11-09T12:26:23.961Z,0.1
2022-11-09T12:27:33.102Z,0.2
2022-11-09T12:28:42.687Z,0.3
2022-11-09T12:29:51.423Z,0.1
2022-11-09T12:30:59.273Z,0.1
2022-11-09T12:32:08.979Z,0.5
2022-11-09T12:33:18.890Z,0.2
2022-11-09T12:34:27.502Z,0.2
2022-11-09T12:35:37.413Z,0.2
2022-11-09T12:36:47.090Z,0.4
2022-11-09T12:37:56.857Z,0.4
2022-11-09T12:39:06.582Z,0.1
2022-11-09T12:40:16.319Z,0.1
2022-11-09T12:41:26.143Z,0.3
2022-11-09T12:42:35.840Z,0.2
2022-11-09T12:43:42.697Z,0.1
2022-11-09T12:44:52.606Z,0.2
2022-11-09T12:46:01.497Z,0.2
2022-11-09T12:47:10.453Z,0.2
2022-11-09T12:48:20.343Z,0.3
2022-11-09T12:49:29.075Z,0.1
2022-11-09T12:50:38.807Z,0.2
2022-11-09T12:51:48.581Z,0.2
2022-11-09T12:52:58.384Z,0.2
2022-11-09T12:54:08.223Z,0.3
2022-11-09T12:55:18.002Z,0.2
2022-11-09T12:56:25.721Z,0.1
2022-11-09T12:57:35.484Z,0.1
2022-11-09T12:58:45.363Z,0.2
2022-11-09T12:59:54.095Z,0.2
2022-11-09T13:01:03.911Z,0.2
2022-11-09T13:02:12.664Z,0.1
2022-11-09T13:03:22.536Z,0.2
2022-11-09T13:04:31.136Z,0.3
2022-11-09T13:05:39.864Z,0.2
2022-11-09T13:06:49.667Z,0.2
2022-11-09T13:07:58.316Z,0.2
2022-11-09T13:09:07.056Z,0.2
2022-11-09T13:10:16.856Z,0.2
2022-11-09T13:11:24.627Z,0.2
2022-11-09T13:12:34.388Z,0.1
2022-11-09T13:13:44.130Z,0.2
2022-11-09T13:14:52.870Z,0.2
2022-11-09T13:16:02.715Z,0.2
2022-11-09T13:17:11.459Z,0.3
2022-11-09T13:18:20.261Z,0.2
2022-11-09T13:19:31.026Z,0.4
2022-11-09T13:20:54.420Z,0.2
2022-11-09T13:21:51.521Z,0.2
2022-11-09T13:23:01.233Z,0.2
2022-11-09T13:24:14.018Z,0.2
2022-11-09T13:25:21.720Z,0.3
2022-11-09T13:26:29.491Z,0.2
2022-11-09T13:27:38.262Z,0.2
2022-11-09T13:28:47.991Z,0.4
2022-11-09T13:29:57.624Z,0.3
2022-11-09T13:31:07.374Z,0.3
2022-11-09T13:32:16.138Z,0.2
2022-11-09T13:33:24.602Z,0.2
2022-11-09T13:34:33.592Z,0.3
2022-11-09T13:35:41.378Z,0.3
2022-11-09T13:36:50.099Z,0.3
2022-11-09T13:37:59.911Z,0.2
2022-11-09T13:39:07.841Z,0.2
2022-11-09T13:40:17.602Z,0.2
2022-11-09T13:41:27.396Z,0.1
2022-11-09T13:42:36.142Z,0.2
2022-11-09T13:43:45.928Z,0.2
2022-11-09T13:44:55.629Z,0.2
2022-11-09T13:46:05.339Z,0.3
2022-11-09T13:47:15.137Z,0.1
2022-11-09T13:48:23.122Z,0.3
2022-11-09T13:49:32.674Z,0.1
2022-11-09T13:50:42.466Z,0.5
2022-11-09T13:51:51.230Z,0.2
2022-11-09T13:53:01.001Z,0.2
2022-11-09T13:54:10.736Z,0.2
2022-11-09T13:55:19.570Z,0.3
2022-11-09T13:56:29.357Z,0.4
2022-11-09T13:57:37.142Z,0.2
2022-11-09T13:58:46.989Z,0.2
2022-11-09T13:59:56.741Z,0.2
2022-11-09T14:01:05.576Z,0.4
2022-11-09T14:02:14.298Z,0.2
2022-11-09T14:03:22.977Z,0.3
2022-11-09T14:04:31.774Z,0.2
2022-11-09T14:05:41.585Z,0.2
2022-11-09T14:06:50.304Z,0.2
2022-11-09T14:08:00.024Z,0.2
2022-11-09T14:09:08.747Z,0.2
2022-11-09T14:10:17.469Z,0.2
2022-11-09T14:11:27.261Z,0.2
2022-11-09T14:12:35.071Z,0.2
2022-11-09T14:13:43.886Z,0.2
2022-11-09T14:14:54.528Z,0.2
2022-11-09T14:16:03.263Z,0.3
2022-11-09T14:17:13.108Z,0.3
2022-11-09T14:18:22.763Z,0.2
2022-11-09T14:19:30.804Z,0.3
2022-11-09T14:20:40.583Z,0.1
2022-11-09T14:21:50.368Z,0.3
2022-11-09T14:23:00.002Z,0.2
2022-11-09T14:24:09.725Z,0.3
2022-11-09T14:25:17.499Z,0.4
2022-11-09T14:26:27.280Z,0.2
2022-11-09T14:27:36.969Z,0.4
2022-11-09T14:28:45.712Z,0.4
2022-11-09T14:29:55.415Z,0.5
2022-11-09T14:31:04.158Z,0.6
2022-11-09T14:32:12.907Z,0.4
2022-11-09T14:33:22.666Z,0.4
2022-11-09T14:34:32.383Z,0.3
2022-11-09T14:35:40.110Z,0.5
2022-11-09T14:36:49.953Z,0.3
2022-11-09T14:37:57.654Z,0.2
2022-11-09T14:39:06.383Z,0.3
2022-11-09T14:40:16.149Z,0.2
2022-11-09T14:41:24.904Z,0.2
2022-11-09T14:42:34.679Z,0.2
2022-11-09T14:43:44.421Z,0.2
2022-11-09T14:44:53.164Z,0.2
2022-11-09T14:46:03.003Z,0.2
2022-11-09T14:47:10.755Z,0.2
2022-11-09T14:48:20.062Z,0.1
2022-11-09T14:49:29.317Z,0.2
2022-11-09T14:50:39.089Z,0.1
2022-11-09T14:51:48.783Z,0.2
2022-11-09T14:52:57.514Z,0.2
2022-11-09T14:54:05.381Z,0.4
2022-11-09T14:55:15.143Z,0.4
2022-11-09T14:56:22.888Z,0.3
2022-11-09T14:57:32.622Z,0.3
2022-11-09T14:58:42.448Z,0.3
2022-11-09T14:59:50.257Z,0.3
2022-11-09T15:01:00.003Z,0.2
2022-11-09T15:02:08.751Z,0.2
2022-11-09T15:03:17.527Z,0.4
2022-11-09T15:04:27.363Z,0.4
2022-11-09T15:05:36.200Z,0.6
2022-11-09T15:06:45.754Z,0.4
2022-11-09T15:07:55.467Z,0.3
2022-11-09T15:09:04.178Z,0.3
2022-11-09T15:10:13.925Z,0.5
2022-11-09T15:11:23.749Z,0.3
2022-11-09T15:12:32.543Z,0.9
2022-11-09T15:13:42.269Z,0.4
2022-11-09T15:14:51.050Z,0.6
2022-11-09T15:15:59.788Z,0.5
2022-11-09T15:17:09.610Z,0.7
2022-11-09T15:18:17.671Z,0.5
2022-11-09T15:19:27.161Z,0.6
2022-11-09T15:20:36.898Z,0.7
2022-11-09T15:21:46.783Z,1.2
2022-11-09T15:22:56.541Z,0.7
2022-11-09T15:24:05.305Z,1
2022-11-09T15:25:15.028Z,0.9
2022-11-09T15:26:24.790Z,0.7
2022-11-09T15:27:32.527Z,0.8
2022-11-09T15:28:41.296Z,0.6
2022-11-09T15:29:50.029Z,0.8
2022-11-09T15:30:57.781Z,0.7
2022-11-09T15:32:07.535Z,0.7
2022-11-09T15:33:16.277Z,0.7
2022-11-09T15:34:25.054Z,0.7
2022-11-09T15:35:34.793Z,0.6
2022-11-09T15:36:46.049Z,0.9
2022-11-09T15:37:55.439Z,1
2022-11-09T15:39:06.148Z,1.5
2022-11-09T15:40:14.980Z,1.1
2022-11-09T15:41:24.656Z,1.2
2022-11-09T15:42:32.404Z,0.9
2022-11-09T15:43:42.181Z,0.8
2022-11-09T15:44:52.127Z,0.7
2022-11-09T15:46:00.816Z,0.6
2022-11-09T15:47:10.904Z,0.8
2022-11-09T15:48:19.897Z,0.7
2022-11-09T15:49:28.404Z,0.6
2022-11-09T15:50:38.161Z,0.7
2022-11-09T15:51:47.933Z,0.6
2022-11-09T15:52:56.643Z,0.5
2022-11-09T15:54:06.348Z,0.8
2022-11-09T15:55:16.052Z,0.6
2022-11-09T15:56:25.816Z,0.8
2022-11-09T15:57:35.738Z,0.6